Time;durP1;ratioP1;P1;durP2;ratioP2;P2;SDS_P1;SDS_P2;PMS_P1;PMS_P2;Temp;Humidity;BMP_temperature;BMP_pressure;BME280_temperature;BME280_humidity;BME280_pressure;Samples;Min_cycle;Max_cycle;Signal;HPM_P1;HPM_P2
2022/12/21 00:01:18;;;;;;;5.43;5.13;;;;;;;9.03;100.00;100662.66;6146298;23;20078;-72
2022/12/21 00:03:45;;;;;;;5.38;4.97;;;;;;;8.90;100.00;100647.53;6177764;23;20047;-71
2022/12/21 00:06:12;;;;;;;5.57;5.20;;;;;;;9.02;100.00;100660.94;6141231;23;20029;-71
2022/12/21 00:08:41;;;;;;;5.20;4.70;;;;;;;8.55;100.00;100589.78;6146406;23;20174;-71
2022/12/21 00:11:09;;;;;;;6.57;6.07;;;;;;;9.01;100.00;100670.56;6140055;23;20485;-71
2022/12/21 00:13:35;;;;;;;4.88;4.63;;;;;;;8.69;100.00;100620.56;6113362;23;20486;-72
2022/12/21 00:16:05;;;;;;;5.10;4.88;;;;;;;8.97;100.00;100663.78;6164244;23;20430;-70
2022/12/21 00:18:36;;;;;;;5.00;4.70;;;;;;;8.93;100.00;100657.00;6144142;23;20021;-72
2022/12/21 00:21:13;;;;;;;5.70;5.20;;;;;;;9.01;100.00;100661.88;6168306;23;20044;-71
2022/12/21 00:23:42;;;;;;;4.68;4.47;;;;;;;9.00;100.00;100658.41;6144432;23;20013;-72
2022/12/21 00:26:10;;;;;;;4.50;4.20;;;;;;;8.73;100.00;100611.66;6177428;23;22388;-71
2022/12/21 00:28:36;;;;;;;4.80;4.53;;;;;;;9.05;100.00;100664.28;6148080;23;20035;-72
2022/12/21 00:31:11;;;;;;;5.10;4.80;;;;;;;8.97;100.00;100643.69;6151200;23;20016;-74
2022/12/21 00:33:40;;;;;;;4.93;4.63;;;;;;;8.97;100.00;100643.69;6176253;23;20028;-72
2022/12/21 00:36:10;;;;;;;5.72;5.35;;;;;;;8.90;100.00;100631.81;6120789;23;20070;-70
2022/12/21 00:38:36;;;;;;;5.00;4.60;;;;;;;9.04;100.00;100653.88;6177663;23;20013;-70
2022/12/21 00:41:07;;;;;;;5.32;4.72;;;;;;;9.06;100.00;100652.03;6146409;23;20028;-71
2022/12/21 00:43:35;;;;;;;5.10;4.63;;;;;;;8.70;100.00;100588.25;6173915;23;20487;-70
2022/12/21 00:46:03;;;;;;;4.75;4.55;;;;;;;8.90;100.00;100634.44;6138336;23;20031;-68
2022/12/21 00:48:31;;;;;;;4.72;4.43;;;;;;;9.05;100.00;100645.94;6176057;23;20033;-71
2022/12/21 00:51:09;;;;;;;5.35;5.05;;;;;;;9.05;100.00;100651.19;6175160;23;20102;-70
2022/12/21 00:53:36;;;;;;;5.07;4.85;;;;;;;9.05;100.00;100648.56;6194181;23;20188;-70
2022/12/21 00:56:05;;;;;;;5.55;5.13;;;;;;;9.03;100.00;100645.19;6115979;23;20143;-70
2022/12/21 00:58:33;;;;;;;5.00;4.70;;;;;;;8.97;100.00;100633.22;6172970;23;20024;-69
2022/12/21 01:01:05;;;;;;;5.47;5.18;;;;;;;8.99;100.00;100643.63;6112182;23;20077;-68
2022/12/21 01:03:32;;;;;;;4.80;4.50;;;;;;;8.78;100.00;100609.69;6171779;23;20275;-69
2022/12/21 01:05:58;;;;;;;5.05;4.75;;;;;;;8.97;100.00;100658.56;6142489;23;20134;-68
2022/12/21 01:08:25;;;;;;;4.78;4.47;;;;;;;8.95;100.00;100666.47;6144112;23;20011;-69
2022/12/21 01:11:00;;;;;;;6.88;4.88;;;;;;;8.73;100.00;100629.97;6173172;23;20168;-68
2022/12/21 01:13:27;;;;;;;5.63;5.22;;;;;;;8.03;100.00;100521.50;6129759;23;20538;-69
2022/12/21 01:15:54;;;;;;;5.30;4.97;;;;;;;8.95;100.00;100665.63;6135430;23;20175;-69
2022/12/21 01:18:21;;;;;;;5.18;4.88;;;;;;;9.01;100.00;100674.97;6142989;23;20523;-68
2022/12/21 01:20:50;;;;;;;6.20;5.70;;;;;;;8.94;100.00;100659.56;6142820;23;20036;-68
2022/12/21 01:23:17;;;;;;;5.93;5.53;;;;;;;9.04;100.00;100670.44;6161292;23;20009;-69
2022/12/21 01:25:45;;;;;;;5.82;5.45;;;;;;;8.71;100.00;100615.25;6136629;23;20024;-70
2022/12/21 01:28:13;;;;;;;6.85;5.32;;;;;;;9.01;100.00;100664.50;6166921;23;20045;-69
2022/12/21 01:30:40;;;;;;;5.15;4.85;;;;;;;9.03;100.00;100671.34;6149104;23;20036;-70
2022/12/21 01:33:18;;;;;;;5.82;5.53;;;;;;;9.07;100.00;100688.63;6138611;23;20553;-69
2022/12/21 01:35:45;;;;;;;6.53;6.05;;;;;;;9.06;100.00;100688.69;6164513;23;20013;-69
2022/12/21 01:38:12;;;;;;;5.38;5.07;;;;;;;9.05;100.00;100687.84;6131674;23;20041;-69
2022/12/21 01:40:39;;;;;;;5.80;5.30;;;;;;;9.02;100.00;100687.13;6168670;23;20239;-70
2022/12/21 01:43:16;;;;;;;6.07;5.68;;;;;;;8.96;100.00;100683.88;6136721;23;20021;-70
2022/12/21 01:45:42;;;;;;;6.03;5.55;;;;;;;8.95;100.00;100676.09;6163816;23;20076;-69
2022/12/21 01:48:15;;;;;;;6.15;5.60;;;;;;;8.95;100.00;100686.56;6142524;23;20034;-69
2022/12/21 01:51:02;;;;;;;6.10;5.60;;;;;;;8.93;100.00;100694.47;6141685;23;20016;-69
2022/12/21 01:53:33;;;;;;;6.53;5.93;;;;;;;8.94;100.00;100687.47;6168973;23;20032;-69
2022/12/21 01:56:04;;;;;;;6.15;5.63;;;;;;;8.75;100.00;100663.91;6136024;23;20158;-69
2022/12/21 01:58:31;;;;;;;5.45;5.05;;;;;;;8.96;100.00;100701.34;6143812;23;20009;-69
2022/12/21 02:00:59;;;;;;;5.80;5.40;;;;;;;8.81;100.00;100673.25;6138459;23;20226;-69
2022/12/21 02:03:35;;;;;;;6.25;5.75;;;;;;;8.78;100.00;100663.78;6170144;23;20542;-70
2022/12/21 02:06:13;;;;;;;6.05;5.57;;;;;;;8.91;100.00;100683.22;6135080;23;20013;-68
2022/12/21 02:08:40;;;;;;;6.20;5.63;;;;;;;8.94;100.00;100682.22;6163994;23;20447;-69
2022/12/21 02:11:07;;;;;;;8.90;5.15;;;;;;;8.95;100.00;100691.81;6137606;23;20064;-71
2022/12/21 02:13:34;;;;;;;6.93;6.32;;;;;;;8.94;100.00;100684.84;6133549;23;20029;-69
2022/12/21 02:16:17;;;;;;;6.78;6.28;;;;;;;8.88;100.00;100679.91;6148679;23;20020;-68
2022/12/21 02:19:08;;;;;;;5.32;5.03;;;;;;;8.93;100.00;100697.09;6139402;23;20455;-70
2022/12/21 02:21:58;;;;;;;5.90;5.50;;;;;;;8.92;100.00;100691.94;6170120;23;20013;-68
2022/12/21 02:24:31;;;;;;;7.07;6.45;;;;;;;8.94;100.00;100688.34;6115229;23;20259;-69
2022/12/21 02:27:16;;;;;;;6.28;5.65;;;;;;;8.96;100.00;100688.25;6113433;23;20088;-69
2022/12/21 02:29:56;;;;;;;5.82;5.43;;;;;;;8.95;100.00;100686.56;6169041;23;20036;-69
2022/12/21 02:32:38;;;;;;;8.32;6.38;;;;;;;8.92;100.00;100684.94;6126455;23;20077;-68
2022/12/21 02:35:26;;;;;;;8.23;6.63;;;;;;;8.94;100.00;100680.50;6138677;23;20066;-69
2022/12/21 02:38:14;;;;;;;5.72;5.07;;;;;;;8.93;100.00;100670.09;6162796;23;20023;-68
2022/12/21 02:40:51;;;;;;;6.22;5.82;;;;;;;8.62;100.00;100627.00;6132780;23;20088;-68
2022/12/21 02:46:36;;;;;;;6.43;5.93;;;;;;;8.87;100.00;100681.66;6165021;23;20329;-69
2022/12/21 02:49:11;;;;;;;6.03;5.55;;;;;;;8.78;100.00;100674.25;6140263;23;20027;-68
2022/12/21 02:51:41;;;;;;;5.97;5.45;;;;;;;8.84;100.00;100684.44;6146237;23;20076;-69
2022/12/21 02:54:09;;;;;;;7.35;5.93;;;;;;;8.82;100.00;100686.28;6157783;23;20021;-69
2022/12/21 02:56:36;;;;;;;5.88;5.40;;;;;;;8.81;100.00;100689.81;6141002;23;20041;-69
2022/12/21 02:59:03;;;;;;;6.00;5.60;;;;;;;8.53;100.00;100635.25;6140950;23;20033;-69
2022/12/21 03:01:55;;;;;;;6.22;5.82;;;;;;;8.82;100.00;100681.06;6149250;23;20019;-68
2022/12/21 03:04:56;;;;;;;5.13;4.82;;;;;;;8.22;100.00;100602.59;6145486;23;20027;-68
2022/12/21 03:07:32;;;;;;;5.13;4.82;;;;;;;8.81;100.00;100654.94;6141766;23;20265;-71
2022/12/21 03:10:14;;;;;;;5.97;5.57;;;;;;;8.82;100.00;100657.50;6132537;23;20054;-69
2022/12/21 03:12:58;;;;;;;17.83;6.00;;;;;;;8.82;100.00;100656.63;6166049;23;20016;-69
2022/12/21 03:15:32;;;;;;;5.40;5.00;;;;;;;8.79;100.00;100657.63;6130328;23;20146;-68
2022/12/21 03:18:20;;;;;;;5.43;5.03;;;;;;;8.75;100.00;100649.06;6172744;23;20070;-68
2022/12/21 03:21:01;;;;;;;5.72;5.32;;;;;;;8.60;100.00;100631.47;6141163;23;20914;-69
2022/12/21 03:23:40;;;;;;;6.80;6.18;;;;;;;8.65;100.00;100632.09;6139448;23;20045;-69
2022/12/21 03:26:20;;;;;;;5.70;5.30;;;;;;;8.51;100.00;100610.94;6163222;23;20545;-69
2022/12/21 03:28:49;;;;;;;6.53;6.05;;;;;;;8.62;100.00;100642.69;6136853;23;20013;-68
2022/12/21 03:31:21;;;;;;;7.55;5.95;;;;;;;8.66;100.00;100652.09;6138560;23;20228;-69
2022/12/21 03:33:55;;;;;;;9.30;7.22;;;;;;;8.48;100.00;100624.13;6146822;23;20482;-69
2022/12/21 03:36:47;;;;;;;6.30;5.70;;;;;;;8.49;100.00;100621.47;6143105;23;20342;-69
2022/12/21 03:39:19;;;;;;;6.13;5.72;;;;;;;8.68;100.00;100646.78;6182468;23;20033;-69
2022/12/21 03:41:57;;;;;;;7.60;6.03;;;;;;;8.66;100.00;100639.03;6144685;23;20462;-69
2022/12/21 03:44:36;;;;;;;5.28;4.97;;;;;;;8.66;100.00;100644.25;6147004;23;20381;-69
2022/12/21 03:47:08;;;;;;;6.25;5.75;;;;;;;8.66;100.00;100640.78;6134036;23;20013;-69
2022/12/21 03:49:47;;;;;;;5.88;5.47;;;;;;;8.18;100.00;100569.66;6150758;23;20025;-68
2022/12/21 03:52:18;;;;;;;6.07;5.50;;;;;;;8.65;100.00;100639.94;6149447;23;20254;-69
2022/12/21 03:54:53;;;;;;;6.13;5.07;;;;;;;8.65;100.00;100632.09;6140862;23;20014;-69
2022/12/21 03:57:20;;;;;;;5.63;5.22;;;;;;;8.65;100.00;100633.84;6162011;23;20530;-69
2022/12/21 03:59:50;;;;;;;5.22;4.82;;;;;;;8.65;100.00;100636.47;6144967;23;20087;-69
2022/12/21 04:02:32;;;;;;;5.47;5.07;;;;;;;7.19;100.00;100392.84;6131031;23;20166;-69
2022/12/21 04:05:10;;;;;;;6.05;5.55;;;;;;;8.62;100.00;100624.38;6177727;23;20032;-68
2022/12/21 04:07:39;;;;;;;5.50;5.20;;;;;;;8.44;100.00;100605.13;6145823;23;20076;-68
2022/12/21 04:10:17;;;;;;;5.60;5.30;;;;;;;7.96;100.00;100534.00;6138732;23;20368;-69
2022/12/21 04:12:46;;;;;;;5.82;5.47;;;;;;;8.51;100.00;100617.00;6145907;23;20178;-68
2022/12/21 04:15:17;;;;;;;8.50;7.82;;;;;;;8.50;100.00;100614.44;6139400;23;20029;-69
2022/12/21 04:17:46;;;;;;;6.55;5.80;;;;;;;8.46;100.00;100615.50;6167216;23;20406;-69
2022/12/21 04:20:16;;;;;;;5.78;5.28;;;;;;;8.35;100.00;100595.88;6145785;23;20085;-69
2022/12/21 04:28:26;;;;;;;6.15;5.60;;;;;;;8.48;100.00;100608.44;6134069;23;20036;-69
2022/12/21 04:31:12;;;;;;;5.75;5.30;;;;;;;8.34;100.00;100591.59;6173274;23;20040;-69
2022/12/21 04:33:39;;;;;;;6.38;5.53;;;;;;;8.50;100.00;100615.31;6113823;23;20327;-69
2022/12/21 04:38:51;;;;;;;5.78;5.40;;;;;;;8.53;100.00;100623.00;6143035;23;20035;-70
2022/12/21 04:41:17;;;;;;;6.05;4.90;;;;;;;8.60;100.00;100626.22;6142162;23;20084;-69
2022/12/21 04:43:43;;;;;;;5.97;5.57;;;;;;;8.62;100.00;100613.94;6139915;23;20031;-68
2022/12/21 04:46:13;;;;;;;6.15;5.32;;;;;;;8.63;100.00;100617.38;6144536;23;20548;-69
2022/12/21 04:48:41;;;;;;;6.30;5.70;;;;;;;8.64;100.00;100625.16;6149174;23;20448;-69
2022/12/21 04:51:12;;;;;;;6.57;5.93;;;;;;;8.70;100.00;100617.03;6164448;23;20473;-69
2022/12/21 04:53:39;;;;;;;5.90;5.40;;;;;;;8.72;100.00;100624.78;6137765;23;20020;-69
2022/12/21 04:56:06;;;;;;;6.32;5.82;;;;;;;8.73;100.00;100627.34;6132053;23;20282;-69
2022/12/21 04:58:33;;;;;;;5.50;5.13;;;;;;;8.65;100.00;100611.16;6166232;23;20020;-69
2022/12/21 05:01:02;;;;;;;6.88;6.28;;;;;;;8.71;100.00;100616.09;6136535;23;20393;-69
2022/12/21 05:03:31;;;;;;;8.15;5.75;;;;;;;8.11;100.00;100515.94;6174130;23;20016;-69
2022/12/21 05:05:58;;;;;;;7.22;6.57;;;;;;;8.73;100.00;100618.66;6136848;23;20040;-69
2022/12/21 05:08:24;;;;;;;5.82;5.43;;;;;;;8.44;100.00;100565.03;6167325;23;20501;-69
2022/12/21 05:10:51;;;;;;;9.23;6.50;;;;;;;8.78;100.00;100611.47;6136819;23;20025;-70
2022/12/21 05:13:17;;;;;;;6.75;6.15;;;;;;;8.78;100.00;100624.53;6138488;23;20320;-69
2022/12/21 05:15:44;;;;;;;9.52;6.10;;;;;;;8.78;100.00;100611.47;6141037;23;20025;-69
2022/12/21 05:18:11;;;;;;;7.18;5.85;;;;;;;8.58;100.00;100578.38;6134463;23;20024;-68
2022/12/21 05:20:37;;;;;;;6.07;5.38;;;;;;;8.70;100.00;100613.53;6143349;23;20435;-68
2022/12/21 05:23:03;;;;;;;7.03;6.53;;;;;;;8.22;100.00;100518.94;6134133;23;20392;-68
2022/12/21 05:25:30;;;;;;;5.45;5.05;;;;;;;8.67;100.00;100590.16;6168062;23;20066;-70
2022/12/21 05:27:56;;;;;;;6.50;5.90;;;;;;;8.78;100.00;100617.53;6132440;23;20428;-69
2022/12/21 05:30:22;;;;;;;6.60;6.03;;;;;;;8.77;100.00;100617.59;6170498;23;20548;-68
2022/12/21 05:32:49;;;;;;;5.13;4.70;;;;;;;8.54;100.00;100582.03;6143660;23;20019;-69
2022/12/21 05:35:15;;;;;;;5.97;5.47;;;;;;;8.75;100.00;100617.66;6165475;23;20100;-69
2022/12/21 05:37:42;;;;;;;8.18;7.53;;;;;;;8.76;100.00;100622.00;6134870;23;20016;-70
2022/12/21 05:40:09;;;;;;;6.10;5.70;;;;;;;8.59;100.00;100600.97;6173325;23;20054;-69
2022/12/21 05:42:36;;;;;;;6.45;5.95;;;;;;;8.76;100.00;100618.53;6141787;23;20505;-68
2022/12/21 05:45:02;;;;;;;7.93;6.50;;;;;;;8.61;100.00;100614.81;6135517;23;20021;-69
2022/12/21 05:47:29;;;;;;;7.63;6.93;;;;;;;8.66;100.00;100602.41;6141047;23;20706;-69
2022/12/21 05:49:55;;;;;;;5.78;5.38;;;;;;;8.75;100.00;100604.56;6132257;23;20051;-69
2022/12/21 05:52:21;;;;;;;6.43;5.82;;;;;;;8.68;100.00;100592.72;6164716;23;20444;-68
2022/12/21 05:54:49;;;;;;;5.82;5.50;;;;;;;8.29;100.00;100530.78;6134888;23;20100;-70
2022/12/21 05:57:15;;;;;;;6.63;6.07;;;;;;;8.48;100.00;100556.13;6136518;23;20077;-70
2022/12/21 05:59:41;;;;;;;5.85;5.40;;;;;;;8.74;100.00;100595.03;6165212;23;20447;-70
2022/12/21 06:02:08;;;;;;;6.93;6.32;;;;;;;8.64;100.00;100585.94;6129831;23;20067;-69
2022/12/21 06:04:34;;;;;;;7.20;6.60;;;;;;;8.42;100.00;100551.19;6146091;23;20026;-70
2022/12/21 06:07:03;;;;;;;5.97;5.57;;;;;;;8.62;100.00;100577.31;6134773;23;20042;-69
2022/12/21 06:09:32;;;;;;;6.63;6.03;;;;;;;8.73;100.00;100597.72;6163735;23;20050;-69
2022/12/21 06:11:58;;;;;;;5.63;5.22;;;;;;;8.72;100.00;100594.28;6136492;23;20028;-70
2022/12/21 06:14:24;;;;;;;6.43;5.93;;;;;;;8.50;100.00;100564.75;6133694;23;20036;-70
2022/12/21 06:16:51;;;;;;;5.72;5.32;;;;;;;8.54;100.00;100584.66;6133432;23;20467;-71
2022/12/21 06:19:17;;;;;;;6.05;5.40;;;;;;;8.53;100.00;100601.25;6141139;23;20535;-70
2022/12/21 06:21:44;;;;;;;6.43;5.85;;;;;;;8.57;100.00;100592.34;6138045;23;20021;-69
2022/12/21 06:24:10;;;;;;;5.78;5.38;;;;;;;7.47;100.00;100421.22;6174856;23;20028;-70
2022/12/21 06:26:37;;;;;;;6.18;5.55;;;;;;;8.52;100.00;100583.84;6141093;23;20527;-69
2022/12/21 06:29:12;;;;;;;6.63;6.03;;;;;;;8.33;100.00;100555.88;6158439;23;20095;-69
2022/12/21 06:31:38;;;;;;;5.80;5.40;;;;;;;8.66;100.00;100602.41;6150778;23;20446;-69
2022/12/21 06:34:05;;;;;;;6.70;5.82;;;;;;;8.69;100.00;100606.63;6139173;23;20033;-70
2022/12/21 06:36:31;;;;;;;7.70;5.93;;;;;;;8.38;100.00;100556.53;6167419;23;20024;-70
2022/12/21 06:38:58;;;;;;;7.05;6.15;;;;;;;8.71;100.00;100605.63;6138853;23;20021;-70
2022/12/21 06:41:25;;;;;;;7.53;6.93;;;;;;;8.44;100.00;100562.44;6164101;23;20021;-70
2022/12/21 06:43:51;;;;;;;7.65;6.85;;;;;;;8.43;100.00;100581.66;6138857;23;20037;-69
2022/12/21 06:46:19;;;;;;;8.20;6.18;;;;;;;8.64;100.00;100604.25;6176414;23;20283;-69
2022/12/21 06:48:46;;;;;;;5.28;4.97;;;;;;;8.60;100.00;100592.22;6163550;23;20068;-70
2022/12/21 06:51:15;;;;;;;6.05;5.55;;;;;;;8.66;100.00;100601.53;6165912;23;20012;-70
2022/12/21 06:53:44;;;;;;;5.85;5.35;;;;;;;8.68;100.00;100603.19;6143427;23;20025;-70
2022/12/21 06:56:16;;;;;;;5.07;4.78;;;;;;;8.71;100.00;100607.41;6136051;23;20315;-70
2022/12/21 06:58:47;;;;;;;4.72;4.43;;;;;;;7.73;100.00;100443.56;6170640;23;20384;-70
2022/12/21 07:01:16;;;;;;;6.13;4.97;;;;;;;8.62;100.00;100592.13;6131403;23;20263;-70
2022/12/21 07:03:43;;;;;;;5.07;4.78;;;;;;;8.75;100.00;100611.59;6116267;23;20047;-70
2022/12/21 07:06:12;;;;;;;6.50;6.00;;;;;;;8.44;100.00;100583.34;6171011;23;20214;-69
2022/12/21 07:08:39;;;;;;;5.38;4.97;;;;;;;8.71;100.00;100620.50;6146706;23;20016;-69
2022/12/21 07:11:11;;;;;;;5.43;5.10;;;;;;;8.32;100.00;100559.44;6151538;23;20520;-70
2022/12/21 07:13:39;;;;;;;5.73;5.33;;;;;;;8.79;100.00;100624.44;6146793;23;20408;-68
2022/12/21 07:16:06;;;;;;;5.63;5.22;;;;;;;8.79;100.00;100634.06;6151064;23;20050;-68
2022/12/21 07:18:34;;;;;;;5.90;5.32;;;;;;;8.70;100.00;100611.81;6137079;23;20017;-69
2022/12/21 07:21:03;;;;;;;5.70;5.25;;;;;;;8.77;100.00;100626.28;6153036;23;20073;-68
2022/12/21 07:23:30;;;;;;;5.53;5.13;;;;;;;8.79;100.00;100624.44;6138496;23;20036;-68
2022/12/21 07:25:56;;;;;;;6.03;5.50;;;;;;;8.74;100.00;100618.59;6109589;23;20107;-68
2022/12/21 07:28:30;;;;;;;5.65;5.25;;;;;;;8.55;100.00;100594.19;6151626;23;20016;-69
2022/12/21 07:31:07;;;;;;;5.43;5.03;;;;;;;8.51;100.00;100595.25;6137939;23;20057;-69
2022/12/21 07:33:35;;;;;;;5.20;4.90;;;;;;;8.25;100.00;100565.00;6173895;23;20036;-70
2022/12/21 07:36:04;;;;;;;8.38;5.90;;;;;;;8.71;100.00;100630.97;6143357;23;20080;-68
2022/12/21 07:38:32;;;;;;;6.18;5.68;;;;;;;7.42;100.00;100433.66;6167828;23;20451;-72
2022/12/21 07:41:01;;;;;;;5.45;5.15;;;;;;;8.80;100.00;100646.25;6136639;23;20017;-72
2022/12/21 07:43:28;;;;;;;4.78;4.47;;;;;;;8.82;100.00;100640.94;6168703;23;20180;-71
2022/12/21 07:45:55;;;;;;;6.38;5.88;;;;;;;8.51;100.00;100595.25;6119573;23;20024;-73
2022/12/21 07:48:21;;;;;;;5.40;5.00;;;;;;;8.81;100.00;100647.09;6176911;23;20016;-72
2022/12/21 07:50:56;;;;;;;6.40;5.80;;;;;;;8.67;100.00;100639.88;6133893;23;20085;-71
2022/12/21 07:53:22;;;;;;;5.05;4.72;;;;;;;8.70;100.00;100656.28;6169915;23;20024;-71
2022/12/21 07:55:49;;;;;;;5.70;5.30;;;;;;;8.50;100.00;100643.22;6143871;23;20025;-72
2022/12/21 07:58:15;;;;;;;5.47;5.10;;;;;;;8.69;100.00;100670.25;6140188;23;20211;-73
2022/12/21 08:00:42;;;;;;;6.25;5.78;;;;;;;8.75;100.00;100690.06;6147454;23;20102;-73
2022/12/21 08:03:08;;;;;;;5.97;5.47;;;;;;;8.76;100.00;100676.94;6149281;23;20024;-71
2022/12/21 08:05:35;;;;;;;5.35;4.95;;;;;;;8.10;100.00;100549.09;6144861;23;20028;-70
2022/12/21 08:08:02;;;;;;;6.15;5.45;;;;;;;8.30;100.00;100571.72;6142891;23;20053;-71
2022/12/21 08:10:29;;;;;;;5.50;5.00;;;;;;;8.86;100.00;100652.94;6165581;23;20635;-71
2022/12/21 08:12:56;;;;;;;7.30;6.47;;;;;;;8.23;100.00;100575.53;6135777;23;20028;-72
2022/12/21 08:15:22;;;;;;;5.93;5.50;;;;;;;8.55;100.00;100615.09;6160231;23;20111;-72
2022/12/21 08:17:51;;;;;;;5.20;4.80;;;;;;;8.59;100.00;100627.13;6135385;23;20024;-72
2022/12/21 08:20:18;;;;;;;5.72;5.22;;;;;;;8.92;100.00;100679.72;6140671;23;20196;-71
2022/12/21 08:22:45;;;;;;;4.20;4.00;;;;;;;8.94;100.00;100684.84;6128074;23;20435;-71
2022/12/21 08:25:11;;;;;;;5.40;5.00;;;;;;;8.79;100.00;100666.31;6163647;23;20044;-70
2022/12/21 08:27:38;;;;;;;5.25;4.95;;;;;;;8.95;100.00;100678.72;6137121;23;20569;-72
2022/12/21 08:30:05;;;;;;;5.45;5.05;;;;;;;8.94;100.00;100688.34;6154792;23;20084;-72
2022/12/21 08:32:32;;;;;;;5.57;5.07;;;;;;;8.75;100.00;100650.84;6136829;23;20092;-71
2022/12/21 08:34:58;;;;;;;5.22;4.82;;;;;;;8.87;100.00;100676.44;6113581;23;20408;-72
2022/12/21 08:37:25;;;;;;;5.95;5.50;;;;;;;8.99;100.00;100682.88;6161881;23;20083;-74
2022/12/21 08:39:51;;;;;;;5.78;5.10;;;;;;;9.02;100.00;100679.28;6137204;23;20475;-74
2022/12/21 08:42:18;;;;;;;6.07;5.55;;;;;;;8.90;100.00;100651.88;6164443;23;20353;-73
2022/12/21 08:44:44;;;;;;;6.85;5.35;;;;;;;8.94;100.00;100685.72;6132448;23;20009;-71
2022/12/21 08:47:10;;;;;;;6.47;5.32;;;;;;;8.75;100.00;100637.75;6157801;23;21484;-71
2022/12/21 08:49:37;;;;;;;6.28;5.88;;;;;;;8.56;100.00;100627.28;6145402;23;20037;-72
2022/12/21 08:52:03;;;;;;;7.47;6.82;;;;;;;8.33;100.00;100563.72;6140656;23;20117;-72
2022/12/21 08:54:30;;;;;;;6.43;5.88;;;;;;;9.14;100.00;100697.03;6149735;23;20009;-72
2022/12/21 08:56:56;;;;;;;7.63;5.40;;;;;;;8.92;100.00;100657.91;6110595;23;20083;-73
2022/12/21 08:59:22;;;;;;;5.28;4.88;;;;;;;9.18;100.00;100730.00;6169604;23;20200;-72
2022/12/21 09:01:51;;;;;;;5.90;5.40;;;;;;;9.16;100.00;100703.91;6136156;23;20021;-73
2022/12/21 09:04:18;;;;;;;5.85;5.45;;;;;;;9.25;100.00;100704.41;6174354;23;20021;-73
2022/12/21 09:06:45;;;;;;;5.32;5.00;;;;;;;9.29;100.00;100704.19;6138088;23;20215;-71
2022/12/21 09:09:11;;;;;;;5.90;5.57;;;;;;;9.32;100.00;100719.75;6170282;23;20035;-70
2022/12/21 09:11:38;;;;;;;5.97;5.57;;;;;;;9.34;100.00;100714.44;6134890;23;20159;-73
2022/12/21 09:14:19;;;;;;;6.30;5.85;;;;;;;9.25;100.00;100701.78;6027204;23;20618;-72
2022/12/21 09:16:46;;;;;;;5.95;5.38;;;;;;;9.23;100.00;100707.09;6175773;23;20042;-73
2022/12/21 09:19:12;;;;;;;5.60;5.22;;;;;;;9.23;100.00;100722.78;6154224;23;20061;-73
2022/12/21 09:21:39;;;;;;;5.50;5.10;;;;;;;8.95;100.00;100670.84;6131833;23;20155;-71
2022/12/21 09:24:06;;;;;;;7.18;5.35;;;;;;;8.72;100.00;100633.50;6157367;23;20029;-70
2022/12/21 09:26:32;;;;;;;6.50;5.93;;;;;;;8.84;100.00;100636.47;6138434;23;20560;-72
2022/12/21 09:28:59;;;;;;;5.32;5.03;;;;;;;9.23;100.00;100685.28;6164636;23;20123;-72
2022/12/21 09:31:25;;;;;;;7.30;6.70;;;;;;;9.39;100.00;100718.53;6136105;23;20044;-72
2022/12/21 09:33:53;;;;;;;6.82;6.25;;;;;;;8.65;100.00;100652.16;6167366;23;20048;-71
2022/12/21 09:36:21;;;;;;;8.85;6.85;;;;;;;8.44;100.00;100646.97;6143783;23;20017;-71
2022/12/21 09:38:48;;;;;;;9.43;7.60;;;;;;;8.48;100.00;100653.78;6142276;23;20019;-71
2022/12/21 09:41:38;;;;;;;16.70;8.25;;;;;;;8.94;100.00;100742.44;6136233;23;20074;-72
2022/12/21 09:44:19;;;;;;;10.57;6.78;;;;;;;8.96;100.00;100737.97;6167845;23;20045;-72
2022/12/21 09:46:48;;;;;;;15.15;8.15;;;;;;;8.89;100.00;100744.41;6135866;23;20009;-73
2022/12/21 09:49:25;;;;;;;9.45;7.28;;;;;;;8.06;100.00;100653.81;6163732;23;21642;-72
2022/12/21 09:51:56;;;;;;;15.85;7.75;;;;;;;8.05;100.00;100673.88;6141299;23;20031;-72
2022/12/21 09:54:38;;;;;;;8.48;7.25;;;;;;;8.13;100.00;100691.84;6165453;23;20628;-73
2022/12/21 09:57:10;;;;;;;9.18;8.13;;;;;;;8.05;100.00;100699.16;6135676;23;20081;-72
2022/12/21 09:59:36;;;;;;;14.65;7.75;;;;;;;7.87;100.00;100674.66;6136437;23;20033;-73
2022/12/21 10:02:21;;;;;;;16.35;6.93;;;;;;;8.42;100.00;100756.03;6130755;23;20095;-73
2022/12/21 10:05:06;;;;;;;8.32;7.28;;;;;;;8.54;100.00;100734.59;6148603;23;20089;-72
2022/12/21 10:08:17;;;;;;;7.88;7.05;;;;;;;8.92;100.00;100762.59;6143022;23;20055;-73
2022/12/21 10:11:21;;;;;;;8.65;7.50;;;;;;;8.86;100.00;100757.63;6134183;23;20025;-73
2022/12/21 10:14:14;;;;;;;7.35;6.65;;;;;;;7.81;100.00;100579.09;6133040;23;20343;-73
2022/12/21 10:16:59;;;;;;;7.15;6.55;;;;;;;8.81;100.00;100767.47;6141295;23;20017;-73
2022/12/21 10:20:29;;;;;;;10.95;6.70;;;;;;;8.76;100.00;100784.22;6157363;23;20463;-75
2022/12/21 10:23:00;;;;;;;8.05;7.38;;;;;;;8.34;100.00;100737.19;6130778;23;20009;-73
2022/12/21 10:25:48;;;;;;;7.47;6.80;;;;;;;8.69;100.00;100782.75;6165394;23;20021;-73
2022/12/21 10:28:44;;;;;;;14.82;7.63;;;;;;;8.82;100.00;100784.84;6125559;23;20017;-72
2022/12/21 10:31:24;;;;;;;9.05;6.78;;;;;;;8.83;100.00;100781.34;6159294;23;20024;-72
2022/12/21 10:33:55;;;;;;;6.78;6.28;;;;;;;8.22;100.00;100678.41;6136940;23;20123;-73
2022/12/21 10:36:31;;;;;;;9.43;7.38;;;;;;;8.53;100.00;100734.66;6139607;23;20033;-72
2022/12/21 10:38:58;;;;;;;6.50;6.00;;;;;;;8.72;100.00;100764.34;6160226;23;20096;-72
2022/12/21 10:41:34;;;;;;;6.97;5.97;;;;;;;8.88;100.00;100795.03;6126251;23;20035;-73
2022/12/21 10:44:01;;;;;;;6.55;6.07;;;;;;;8.83;100.00;100797.03;6138279;23;20095;-73
2022/12/21 10:46:31;;;;;;;7.88;6.70;;;;;;;8.36;100.00;100746.66;6132317;23;20005;-74
2022/12/21 10:49:25;;;;;;;7.88;6.97;;;;;;;7.98;100.00;100641.09;6165089;23;20040;-73
2022/12/21 10:51:51;;;;;;;6.78;6.28;;;;;;;8.16;100.00;100642.91;6139886;23;20346;-74
2022/12/21 10:54:27;;;;;;;5.95;5.55;;;;;;;8.96;100.00;100756.31;6170374;23;21551;-74
2022/12/21 10:56:56;;;;;;;12.77;6.40;;;;;;;9.04;100.00;100756.84;6130308;23;20076;-73
2022/12/21 10:59:38;;;;;;;7.40;5.20;;;;;;;8.65;100.00;100689.63;6165702;23;20466;-73
2022/12/21 11:02:07;;;;;;;7.90;6.82;;;;;;;8.74;100.00;100714.53;6142880;23;20033;-73
2022/12/21 11:04:33;;;;;;;10.73;6.80;;;;;;;8.89;100.00;100705.16;6179786;23;20032;-72
2022/12/21 11:07:23;;;;;;;6.40;5.90;;;;;;;8.69;100.00;100680.72;6140406;23;20039;-73
2022/12/21 11:10:26;;;;;;;9.80;6.68;;;;;;;9.36;100.00;100749.25;6170738;23;20032;-73
2022/12/21 11:13:13;;;;;;;6.20;5.72;;;;;;;9.67;100.00;100748.69;6147219;23;20025;-72
2022/12/21 11:16:05;;;;;;;6.40;5.82;;;;;;;9.70;100.00;100695.25;6171325;23;20009;-72
2022/12/21 11:18:32;;;;;;;7.22;6.45;;;;;;;10.23;100.00;100741.59;6148309;23;20096;-75
2022/12/21 11:21:00;;;;;;;11.60;7.75;;;;;;;9.34;100.00;100662.06;6138437;23;20017;-75
2022/12/21 11:23:27;;;;;;;7.00;6.00;;;;;;;9.08;100.00;100643.22;6142703;23;20025;-75
2022/12/21 11:25:57;;;;;;;5.80;5.40;;;;;;;9.34;100.00;100669.91;6142217;23;20624;-73
2022/12/21 11:28:24;;;;;;;6.60;6.05;;;;;;;9.66;100.00;100746.13;6172679;23;20261;-73
2022/12/21 11:30:54;;;;;;;10.25;5.72;;;;;;;9.91;100.00;100751.06;6146976;23;20021;-73
2022/12/21 11:33:21;;;;;;;6.95;6.28;;;;;;;9.65;100.00;100682.41;6174620;23;20045;-73
2022/12/21 11:36:15;;;;;;;12.10;7.82;;;;;;;9.78;100.00;100669.53;6143467;23;20008;-73
2022/12/21 11:38:42;;;;;;;6.55;5.90;;;;;;;10.29;100.00;100750.94;6167654;23;20037;-72
2022/12/21 11:41:18;;;;;;;6.35;5.68;;;;;;;10.16;100.00;100708.72;6140811;23;20017;-73
2022/12/21 11:43:48;;;;;;;5.20;4.80;;;;;;;10.41;100.00;100752.97;6143427;23;20009;-73
2022/12/21 11:46:29;;;;;;;5.45;5.15;;;;;;;8.62;100.00;100552.88;6112362;23;20012;-73
2022/12/21 11:49:25;;;;;;;6.15;5.72;;;;;;;9.71;100.00;100737.13;6173918;23;20478;-73
2022/12/21 11:52:01;;;;;;;6.05;5.47;;;;;;;9.96;100.00;100757.78;6144693;23;20031;-75
2022/12/21 11:54:46;;;;;;;5.90;5.40;;;;;;;9.81;100.00;100744.56;6168744;23;20024;-75
2022/12/21 11:57:55;;;;;;;5.07;4.78;;;;;;;9.72;100.00;100749.31;6119141;23;20035;-75